sensor_id;sensor_type;location;lat;lon;timestamp;temperature;humidity
79024;DHT22;70306;44.764;37.688;2023-09-07T00:00:44;22.06;60.29
79024;DHT22;70306;44.764;37.688;2023-09-07T00:01:46;22.02;60.35
79024;DHT22;70306;44.764;37.688;2023-09-07T00:02:48;22.03;60.21
79024;DHT22;70306;44.764;37.688;2023-09-07T00:03:50;21.99;59.26
79024;DHT22;70306;44.764;37.688;2023-09-07T00:04:52;22.00;60.41
79024;DHT22;70306;44.764;37.688;2023-09-07T00:05:54;22.03;60.64
79024;DHT22;70306;44.764;37.688;2023-09-07T00:06:56;22.05;59.70
79024;DHT22;70306;44.764;37.688;2023-09-07T00:07:58;22.03;59.30
79024;DHT22;70306;44.764;37.688;2023-09-07T00:09:01;22.05;59.72
79024;DHT22;70306;44.764;37.688;2023-09-07T00:10:03;21.99;60.14
79024;DHT22;70306;44.764;37.688;2023-09-07T00:11:08;21.95;60.61
79024;DHT22;70306;44.764;37.688;2023-09-07T00:12:13;21.89;59.83
79024;DHT22;70306;44.764;37.688;2023-09-07T00:13:15;21.90;60.13
79024;DHT22;70306;44.764;37.688;2023-09-07T00:14:17;21.85;60.24
79024;DHT22;70306;44.764;37.688;2023-09-07T00:15:19;21.82;59.43
79024;DHT22;70306;44.764;37.688;2023-09-07T00:16:21;21.83;60.49
79024;DHT22;70306;44.764;37.688;2023-09-07T00:17:23;21.82;60.94
79024;DHT22;70306;44.764;37.688;2023-09-07T00:18:26;21.82;59.95
79024;DHT22;70306;44.764;37.688;2023-09-07T00:19:28;21.88;60.73
79024;DHT22;70306;44.764;37.688;2023-09-07T00:20:33;21.82;60.56
79024;DHT22;70306;44.764;37.688;2023-09-07T00:21:35;21.77;59.51
79024;DHT22;70306;44.764;37.688;2023-09-07T00:22:38;21.66;59.78
79024;DHT22;70306;44.764;37.688;2023-09-07T00:23:40;21.72;60.70
79024;DHT22;70306;44.764;37.688;2023-09-07T00:24:43;21.72;60.85
79024;DHT22;70306;44.764;37.688;2023-09-07T00:25:45;21.75;62.62
79024;DHT22;70306;44.764;37.688;2023-09-07T00:26:47;21.75;62.89
79024;DHT22;70306;44.764;37.688;2023-09-07T00:27:49;21.82;62.82
79024;DHT22;70306;44.764;37.688;2023-09-07T00:28:51;21.85;60.02
79024;DHT22;70306;44.764;37.688;2023-09-07T00:29:53;21.86;60.71
79024;DHT22;70306;44.764;37.688;2023-09-07T00:30:55;21.83;61.85
79024;DHT22;70306;44.764;37.688;2023-09-07T00:31:57;21.83;61.84
79024;DHT22;70306;44.764;37.688;2023-09-07T00:32:59;21.85;60.33
79024;DHT22;70306;44.764;37.688;2023-09-07T00:34:01;21.88;60.29
79024;DHT22;70306;44.764;37.688;2023-09-07T00:35:03;21.83;59.97
79024;DHT22;70306;44.764;37.688;2023-09-07T00:36:06;21.82;61.04
79024;DHT22;70306;44.764;37.688;2023-09-07T00:37:08;21.77;60.82
79024;DHT22;70306;44.764;37.688;2023-09-07T00:38:10;21.75;60.26
79024;DHT22;70306;44.764;37.688;2023-09-07T00:39:13;21.74;60.23
79024;DHT22;70306;44.764;37.688;2023-09-07T00:40:15;21.71;60.91
79024;DHT22;70306;44.764;37.688;2023-09-07T00:41:17;21.71;60.10
79024;DHT22;70306;44.764;37.688;2023-09-07T00:42:19;21.72;60.87
79024;DHT22;70306;44.764;37.688;2023-09-07T00:43:21;21.75;61.84
79024;DHT22;70306;44.764;37.688;2023-09-07T00:44:23;21.75;59.85
79024;DHT22;70306;44.764;37.688;2023-09-07T00:45:25;21.77;61.34
79024;DHT22;70306;44.764;37.688;2023-09-07T00:46:27;21.82;62.34
79024;DHT22;70306;44.764;37.688;2023-09-07T00:47:29;21.85;60.47
79024;DHT22;70306;44.764;37.688;2023-09-07T00:48:31;21.79;59.15
79024;DHT22;70306;44.764;37.688;2023-09-07T00:49:33;21.75;60.46
79024;DHT22;70306;44.764;37.688;2023-09-07T00:50:35;21.75;59.47
79024;DHT22;70306;44.764;37.688;2023-09-07T00:51:37;21.72;59.76
79024;DHT22;70306;44.764;37.688;2023-09-07T00:52:42;21.74;61.56
79024;DHT22;70306;44.764;37.688;2023-09-07T00:53:45;21.77;60.20
79024;DHT22;70306;44.764;37.688;2023-09-07T00:54:47;21.71;59.87
79024;DHT22;70306;44.764;37.688;2023-09-07T00:55:49;21.71;60.21
79024;DHT22;70306;44.764;37.688;2023-09-07T00:56:51;21.69;59.52
79024;DHT22;70306;44.764;37.688;2023-09-07T00:57:54;21.66;60.06
79024;DHT22;70306;44.764;37.688;2023-09-07T00:58:57;21.68;60.49
79024;DHT22;70306;44.764;37.688;2023-09-07T01:00:03;21.71;60.95
79024;DHT22;70306;44.764;37.688;2023-09-07T01:01:07;21.72;61.94
79024;DHT22;70306;44.764;37.688;2023-09-07T01:02:09;21.74;61.69
79024;DHT22;70306;44.764;37.688;2023-09-07T01:03:12;21.72;59.95
79024;DHT22;70306;44.764;37.688;2023-09-07T01:04:14;21.71;61.18
79024;DHT22;70306;44.764;37.688;2023-09-07T01:05:16;21.72;59.16
79024;DHT22;70306;44.764;37.688;2023-09-07T01:06:34;21.61;59.10
79024;DHT22;70306;44.764;37.688;2023-09-07T01:07:45;21.54;59.93
79024;DHT22;70306;44.764;37.688;2023-09-07T01:08:50;21.57;60.43
79024;DHT22;70306;44.764;37.688;2023-09-07T01:09:56;21.55;61.53
79024;DHT22;70306;44.764;37.688;2023-09-07T01:11:00;21.57;60.34
79024;DHT22;70306;44.764;37.688;2023-09-07T01:12:02;21.58;60.59
79024;DHT22;70306;44.764;37.688;2023-09-07T01:13:04;21.61;61.42
79024;DHT22;70306;44.764;37.688;2023-09-07T01:14:06;21.63;60.77
79024;DHT22;70306;44.764;37.688;2023-09-07T01:15:08;21.57;59.64
79024;DHT22;70306;44.764;37.688;2023-09-07T01:16:12;21.57;59.77
79024;DHT22;70306;44.764;37.688;2023-09-07T01:17:14;21.45;59.54
79024;DHT22;70306;44.764;37.688;2023-09-07T01:18:17;21.47;60.20
79024;DHT22;70306;44.764;37.688;2023-09-07T01:19:20;21.45;59.91
79024;DHT22;70306;44.764;37.688;2023-09-07T01:20:23;21.43;59.38
79024;DHT22;70306;44.764;37.688;2023-09-07T01:21:25;21.37;60.17
79024;DHT22;70306;44.764;37.688;2023-09-07T01:22:27;21.36;60.87
79024;DHT22;70306;44.764;37.688;2023-09-07T01:23:28;21.34;60.25
79024;DHT22;70306;44.764;37.688;2023-09-07T01:24:31;21.36;59.35
79024;DHT22;70306;44.764;37.688;2023-09-07T01:25:34;21.33;59.35
79024;DHT22;70306;44.764;37.688;2023-09-07T01:26:37;21.31;58.86
79024;DHT22;70306;44.764;37.688;2023-09-07T01:27:43;21.27;59.72
79024;DHT22;70306;44.764;37.688;2023-09-07T01:28:45;21.31;59.19
79024;DHT22;70306;44.764;37.688;2023-09-07T01:29:47;21.33;60.02
79024;DHT22;70306;44.764;37.688;2023-09-07T01:30:51;21.37;59.18
79024;DHT22;70306;44.764;37.688;2023-09-07T01:31:52;21.38;58.84
79024;DHT22;70306;44.764;37.688;2023-09-07T01:32:54;21.37;59.86
79024;DHT22;70306;44.764;37.688;2023-09-07T01:33:56;21.37;59.60
79024;DHT22;70306;44.764;37.688;2023-09-07T01:34:58;21.38;59.68
79024;DHT22;70306;44.764;37.688;2023-09-07T01:36:01;21.37;60.11
79024;DHT22;70306;44.764;37.688;2023-09-07T01:37:02;21.41;61.17
79024;DHT22;70306;44.764;37.688;2023-09-07T01:38:04;21.38;59.71
79024;DHT22;70306;44.764;37.688;2023-09-07T01:39:06;21.34;59.47
79024;DHT22;70306;44.764;37.688;2023-09-07T01:40:08;21.38;60.76
79024;DHT22;70306;44.764;37.688;2023-09-07T01:41:10;21.40;59.79
79024;DHT22;70306;44.764;37.688;2023-09-07T01:42:12;21.41;59.86
79024;DHT22;70306;44.764;37.688;2023-09-07T01:43:14;21.40;59.78
79024;DHT22;70306;44.764;37.688;2023-09-07T01:44:16;21.34;59.54
79024;DHT22;70306;44.764;37.688;2023-09-07T01:45:17;21.37;60.37
79024;DHT22;70306;44.764;37.688;2023-09-07T01:46:19;21.41;62.03
79024;DHT22;70306;44.764;37.688;2023-09-07T01:47:21;21.41;60.39
79024;DHT22;70306;44.764;37.688;2023-09-07T01:48:22;21.41;60.41
79024;DHT22;70306;44.764;37.688;2023-09-07T01:49:24;21.43;61.39
79024;DHT22;70306;44.764;37.688;2023-09-07T01:50:25;21.45;60.51
79024;DHT22;70306;44.764;37.688;2023-09-07T01:51:28;21.41;59.41
79024;DHT22;70306;44.764;37.688;2023-09-07T01:52:29;21.43;59.10
79024;DHT22;70306;44.764;37.688;2023-09-07T01:53:32;21.43;60.28
79024;DHT22;70306;44.764;37.688;2023-09-07T01:54:34;21.40;60.36
79024;DHT22;70306;44.764;37.688;2023-09-07T01:55:36;21.40;58.80
79024;DHT22;70306;44.764;37.688;2023-09-07T01:56:37;21.36;58.65
79024;DHT22;70306;44.764;37.688;2023-09-07T01:57:40;21.36;59.47
79024;DHT22;70306;44.764;37.688;2023-09-07T01:58:42;21.34;60.24
79024;DHT22;70306;44.764;37.688;2023-09-07T01:59:44;21.38;60.76
79024;DHT22;70306;44.764;37.688;2023-09-07T02:00:45;21.37;60.31
79024;DHT22;70306;44.764;37.688;2023-09-07T02:01:47;21.37;60.24
79024;DHT22;70306;44.764;37.688;2023-09-07T02:02:49;21.36;58.99
79024;DHT22;70306;44.764;37.688;2023-09-07T02:03:51;21.34;59.59
79024;DHT22;70306;44.764;37.688;2023-09-07T02:04:52;21.27;60.78
79024;DHT22;70306;44.764;37.688;2023-09-07T02:05:54;21.30;60.72
79024;DHT22;70306;44.764;37.688;2023-09-07T02:06:56;21.30;60.31
79024;DHT22;70306;44.764;37.688;2023-09-07T02:08:00;21.28;61.35
79024;DHT22;70306;44.764;37.688;2023-09-07T02:09:02;21.33;62.48
79024;DHT22;70306;44.764;37.688;2023-09-07T02:10:06;21.34;59.56
79024;DHT22;70306;44.764;37.688;2023-09-07T02:11:08;21.27;61.62
79024;DHT22;70306;44.764;37.688;2023-09-07T02:12:10;21.27;61.01
79024;DHT22;70306;44.764;37.688;2023-09-07T02:13:12;21.27;59.75
79024;DHT22;70306;44.764;37.688;2023-09-07T02:14:15;21.28;60.82
79024;DHT22;70306;44.764;37.688;2023-09-07T02:15:17;21.27;60.64
79024;DHT22;70306;44.764;37.688;2023-09-07T02:16:19;21.31;60.52
79024;DHT22;70306;44.764;37.688;2023-09-07T02:17:20;21.27;60.53
79024;DHT22;70306;44.764;37.688;2023-09-07T02:18:22;21.26;61.14
79024;DHT22;70306;44.764;37.688;2023-09-07T02:19:24;21.28;61.81
79024;DHT22;70306;44.764;37.688;2023-09-07T02:20:27;21.28;62.27
79024;DHT22;70306;44.764;37.688;2023-09-07T02:21:28;21.27;60.40
79024;DHT22;70306;44.764;37.688;2023-09-07T02:22:30;21.30;60.87
79024;DHT22;70306;44.764;37.688;2023-09-07T02:23:32;21.28;62.32
79024;DHT22;70306;44.764;37.688;2023-09-07T02:24:34;21.28;59.69
79024;DHT22;70306;44.764;37.688;2023-09-07T02:25:36;21.28;59.44
79024;DHT22;70306;44.764;37.688;2023-09-07T02:26:37;21.23;58.41
79024;DHT22;70306;44.764;37.688;2023-09-07T02:27:44;21.22;58.47
79024;DHT22;70306;44.764;37.688;2023-09-07T02:28:46;21.22;61.93
79024;DHT22;70306;44.764;37.688;2023-09-07T02:29:48;21.26;59.30
79024;DHT22;70306;44.764;37.688;2023-09-07T02:30:50;21.22;59.64
79024;DHT22;70306;44.764;37.688;2023-09-07T02:31:52;21.20;60.66
79024;DHT22;70306;44.764;37.688;2023-09-07T02:32:55;21.20;59.34
79024;DHT22;70306;44.764;37.688;2023-09-07T02:33:57;21.19;58.67
79024;DHT22;70306;44.764;37.688;2023-09-07T02:34:58;21.20;61.28
79024;DHT22;70306;44.764;37.688;2023-09-07T02:36:00;21.22;58.76
79024;DHT22;70306;44.764;37.688;2023-09-07T02:37:05;21.19;59.08
79024;DHT22;70306;44.764;37.688;2023-09-07T02:38:07;21.19;61.10
79024;DHT22;70306;44.764;37.688;2023-09-07T02:39:09;21.20;60.15
79024;DHT22;70306;44.764;37.688;2023-09-07T02:40:12;21.17;60.60
79024;DHT22;70306;44.764;37.688;2023-09-07T02:41:17;21.16;60.96
79024;DHT22;70306;44.764;37.688;2023-09-07T02:42:18;21.16;60.29
79024;DHT22;70306;44.764;37.688;2023-09-07T02:43:20;21.17;61.63
79024;DHT22;70306;44.764;37.688;2023-09-07T02:44:23;21.17;60.67
79024;DHT22;70306;44.764;37.688;2023-09-07T02:45:25;21.17;60.34
79024;DHT22;70306;44.764;37.688;2023-09-07T02:46:27;21.14;59.78
79024;DHT22;70306;44.764;37.688;2023-09-07T02:47:28;21.13;58.56
79024;DHT22;70306;44.764;37.688;2023-09-07T02:48:30;21.10;58.58
79024;DHT22;70306;44.764;37.688;2023-09-07T02:49:32;21.14;59.09
79024;DHT22;70306;44.764;37.688;2023-09-07T02:50:34;21.11;58.03
79024;DHT22;70306;44.764;37.688;2023-09-07T02:51:36;21.04;58.39
79024;DHT22;70306;44.764;37.688;2023-09-07T02:52:39;21.10;61.10
79024;DHT22;70306;44.764;37.688;2023-09-07T02:53:41;21.16;61.92
79024;DHT22;70306;44.764;37.688;2023-09-07T02:54:43;21.11;59.68
79024;DHT22;70306;44.764;37.688;2023-09-07T02:55:44;21.11;61.19
79024;DHT22;70306;44.764;37.688;2023-09-07T02:56:46;21.20;63.09
79024;DHT22;70306;44.764;37.688;2023-09-07T02:57:48;21.23;58.86
79024;DHT22;70306;44.764;37.688;2023-09-07T02:58:50;21.23;62.17
79024;DHT22;70306;44.764;37.688;2023-09-07T02:59:52;21.24;60.52
79024;DHT22;70306;44.764;37.688;2023-09-07T03:00:55;21.22;61.33
79024;DHT22;70306;44.764;37.688;2023-09-07T03:01:59;21.22;61.92
79024;DHT22;70306;44.764;37.688;2023-09-07T03:03:01;21.19;58.93
79024;DHT22;70306;44.764;37.688;2023-09-07T03:04:04;21.19;60.56
79024;DHT22;70306;44.764;37.688;2023-09-07T03:05:06;21.20;61.53
79024;DHT22;70306;44.764;37.688;2023-09-07T03:06:10;21.20;61.69
79024;DHT22;70306;44.764;37.688;2023-09-07T03:07:12;21.19;60.44
79024;DHT22;70306;44.764;37.688;2023-09-07T03:08:15;21.19;59.55
79024;DHT22;70306;44.764;37.688;2023-09-07T03:09:16;21.23;62.82
79024;DHT22;70306;44.764;37.688;2023-09-07T03:10:18;21.23;61.16
79024;DHT22;70306;44.764;37.688;2023-09-07T03:11:20;21.19;59.35
79024;DHT22;70306;44.764;37.688;2023-09-07T03:12:24;21.17;59.45
79024;DHT22;70306;44.764;37.688;2023-09-07T03:13:26;21.17;60.71
79024;DHT22;70306;44.764;37.688;2023-09-07T03:14:28;21.14;60.60
79024;DHT22;70306;44.764;37.688;2023-09-07T03:15:31;21.19;60.68
79024;DHT22;70306;44.764;37.688;2023-09-07T03:16:33;21.17;58.46
79024;DHT22;70306;44.764;37.688;2023-09-07T03:17:35;21.19;61.35
79024;DHT22;70306;44.764;37.688;2023-09-07T03:18:37;21.17;59.18
79024;DHT22;70306;44.764;37.688;2023-09-07T03:19:39;21.13;59.97
79024;DHT22;70306;44.764;37.688;2023-09-07T03:20:41;21.14;59.79
79024;DHT22;70306;44.764;37.688;2023-09-07T03:21:43;21.11;60.33
79024;DHT22;70306;44.764;37.688;2023-09-07T03:22:46;21.11;59.14
79024;DHT22;70306;44.764;37.688;2023-09-07T03:23:48;21.11;60.21
79024;DHT22;70306;44.764;37.688;2023-09-07T03:24:51;21.11;59.69
79024;DHT22;70306;44.764;37.688;2023-09-07T03:25:53;21.11;60.01
79024;DHT22;70306;44.764;37.688;2023-09-07T03:26:55;21.10;58.66
79024;DHT22;70306;44.764;37.688;2023-09-07T03:27:56;21.10;58.24
79024;DHT22;70306;44.764;37.688;2023-09-07T03:28:58;21.09;60.52
79024;DHT22;70306;44.764;37.688;2023-09-07T03:30:00;21.11;58.93
79024;DHT22;70306;44.764;37.688;2023-09-07T03:31:02;21.14;59.49
79024;DHT22;70306;44.764;37.688;2023-09-07T03:32:04;21.16;59.90
79024;DHT22;70306;44.764;37.688;2023-09-07T03:33:07;21.14;59.10
79024;DHT22;70306;44.764;37.688;2023-09-07T03:34:10;21.16;59.85
79024;DHT22;70306;44.764;37.688;2023-09-07T03:35:11;21.17;59.17
79024;DHT22;70306;44.764;37.688;2023-09-07T03:36:13;21.17;58.64
79024;DHT22;70306;44.764;37.688;2023-09-07T03:37:18;21.17;58.59
79024;DHT22;70306;44.764;37.688;2023-09-07T03:38:19;21.19;58.50
79024;DHT22;70306;44.764;37.688;2023-09-07T03:39:21;21.22;59.94
79024;DHT22;70306;44.764;37.688;2023-09-07T03:40:24;21.20;59.50
79024;DHT22;70306;44.764;37.688;2023-09-07T03:41:25;21.20;59.04
79024;DHT22;70306;44.764;37.688;2023-09-07T03:42:32;21.22;60.50
79024;DHT22;70306;44.764;37.688;2023-09-07T03:43:34;21.26;60.47
79024;DHT22;70306;44.764;37.688;2023-09-07T03:44:35;21.30;59.37
79024;DHT22;70306;44.764;37.688;2023-09-07T03:45:37;21.26;58.46
79024;DHT22;70306;44.764;37.688;2023-09-07T03:46:41;21.26;58.38
79024;DHT22;70306;44.764;37.688;2023-09-07T03:47:43;21.27;59.12
79024;DHT22;70306;44.764;37.688;2023-09-07T03:48:47;21.28;58.72
79024;DHT22;70306;44.764;37.688;2023-09-07T03:49:49;21.31;59.25
79024;DHT22;70306;44.764;37.688;2023-09-07T03:50:51;21.33;58.23
79024;DHT22;70306;44.764;37.688;2023-09-07T03:51:53;21.33;58.25
79024;DHT22;70306;44.764;37.688;2023-09-07T03:52:54;21.31;58.76
79024;DHT22;70306;44.764;37.688;2023-09-07T03:53:57;21.38;58.89
79024;DHT22;70306;44.764;37.688;2023-09-07T03:55:00;21.38;58.99
79024;DHT22;70306;44.764;37.688;2023-09-07T03:56:02;21.38;58.11
79024;DHT22;70306;44.764;37.688;2023-09-07T03:57:07;21.40;58.08
79024;DHT22;70306;44.764;37.688;2023-09-07T03:58:10;21.41;57.97
79024;DHT22;70306;44.764;37.688;2023-09-07T03:59:12;21.41;57.28
79024;DHT22;70306;44.764;37.688;2023-09-07T04:00:14;21.34;57.54
79024;DHT22;70306;44.764;37.688;2023-09-07T04:01:18;21.36;59.18
79024;DHT22;70306;44.764;37.688;2023-09-07T04:02:19;21.41;57.56
79024;DHT22;70306;44.764;37.688;2023-09-07T04:03:22;21.41;57.56
79024;DHT22;70306;44.764;37.688;2023-09-07T04:04:24;21.47;57.72
79024;DHT22;70306;44.764;37.688;2023-09-07T04:05:26;21.51;57.94
79024;DHT22;70306;44.764;37.688;2023-09-07T04:06:28;21.54;58.69
79024;DHT22;70306;44.764;37.688;2023-09-07T04:07:29;21.55;58.87
79024;DHT22;70306;44.764;37.688;2023-09-07T04:08:31;21.58;58.11
79024;DHT22;70306;44.764;37.688;2023-09-07T04:09:33;21.61;57.50
79024;DHT22;70306;44.764;37.688;2023-09-07T04:10:37;21.66;59.31
79024;DHT22;70306;44.764;37.688;2023-09-07T04:11:39;21.68;59.84
79024;DHT22;70306;44.764;37.688;2023-09-07T04:12:41;21.71;59.12
79024;DHT22;70306;44.764;37.688;2023-09-07T04:13:44;21.75;58.68
79024;DHT22;70306;44.764;37.688;2023-09-07T04:14:45;21.77;57.22
79024;DHT22;70306;44.764;37.688;2023-09-07T04:15:47;21.82;57.96
79024;DHT22;70306;44.764;37.688;2023-09-07T04:16:50;21.88;57.36
79024;DHT22;70306;44.764;37.688;2023-09-07T04:17:52;21.89;58.21
79024;DHT22;70306;44.764;37.688;2023-09-07T04:18:57;21.92;57.47
79024;DHT22;70306;44.764;37.688;2023-09-07T04:19:58;21.93;56.76
79024;DHT22;70306;44.764;37.688;2023-09-07T04:21:08;21.96;55.96
79024;DHT22;70306;44.764;37.688;2023-09-07T04:22:11;21.95;55.94
79024;DHT22;70306;44.764;37.688;2023-09-07T04:23:13;21.97;57.31
79024;DHT22;70306;44.764;37.688;2023-09-07T04:24:15;22.03;58.71
79024;DHT22;70306;44.764;37.688;2023-09-07T04:25:17;22.07;58.70
79024;DHT22;70306;44.764;37.688;2023-09-07T04:26:18;22.14;57.89
79024;DHT22;70306;44.764;37.688;2023-09-07T04:27:20;22.18;57.73
79024;DHT22;70306;44.764;37.688;2023-09-07T04:28:23;22.24;56.47
79024;DHT22;70306;44.764;37.688;2023-09-07T04:29:25;22.23;55.44
79024;DHT22;70306;44.764;37.688;2023-09-07T04:30:27;22.29;56.26
79024;DHT22;70306;44.764;37.688;2023-09-07T04:31:28;22.31;55.14
79024;DHT22;70306;44.764;37.688;2023-09-07T04:32:30;22.29;56.25
79024;DHT22;70306;44.764;37.688;2023-09-07T04:33:32;22.29;56.85
79024;DHT22;70306;44.764;37.688;2023-09-07T04:34:34;22.33;56.89
79024;DHT22;70306;44.764;37.688;2023-09-07T04:35:36;22.34;54.56
79024;DHT22;70306;44.764;37.688;2023-09-07T04:36:38;22.40;54.77
79024;DHT22;70306;44.764;37.688;2023-09-07T04:37:42;22.45;54.62
79024;DHT22;70306;44.764;37.688;2023-09-07T04:38:45;22.48;54.15
79024;DHT22;70306;44.764;37.688;2023-09-07T04:39:51;22.48;54.26
79024;DHT22;70306;44.764;37.688;2023-09-07T04:40:54;22.52;55.89
79024;DHT22;70306;44.764;37.688;2023-09-07T04:41:56;22.58;55.66
79024;DHT22;70306;44.764;37.688;2023-09-07T04:42:57;22.62;54.47
79024;DHT22;70306;44.764;37.688;2023-09-07T04:44:00;22.64;53.96
79024;DHT22;70306;44.764;37.688;2023-09-07T04:45:02;22.64;54.49
79024;DHT22;70306;44.764;37.688;2023-09-07T04:46:05;22.59;53.62
79024;DHT22;70306;44.764;37.688;2023-09-07T04:47:06;22.55;54.07
79024;DHT22;70306;44.764;37.688;2023-09-07T04:48:08;22.55;53.89
79024;DHT22;70306;44.764;37.688;2023-09-07T04:49:10;22.59;53.96
79024;DHT22;70306;44.764;37.688;2023-09-07T04:50:11;22.66;54.37
79024;DHT22;70306;44.764;37.688;2023-09-07T04:51:15;22.66;54.01
79024;DHT22;70306;44.764;37.688;2023-09-07T04:52:18;22.64;53.65
79024;DHT22;70306;44.764;37.688;2023-09-07T04:53:20;22.65;53.36
79024;DHT22;70306;44.764;37.688;2023-09-07T04:54:22;22.65;54.21
79024;DHT22;70306;44.764;37.688;2023-09-07T04:55:23;22.72;53.79
79024;DHT22;70306;44.764;37.688;2023-09-07T04:56:25;22.81;53.35
79024;DHT22;70306;44.764;37.688;2023-09-07T04:57:27;22.85;53.28
79024;DHT22;70306;44.764;37.688;2023-09-07T04:58:29;22.88;53.33
79024;DHT22;70306;44.764;37.688;2023-09-07T04:59:31;22.86;53.39
79024;DHT22;70306;44.764;37.688;2023-09-07T05:00:32;22.85;53.43
79024;DHT22;70306;44.764;37.688;2023-09-07T05:01:34;22.86;53.30
79024;DHT22;70306;44.764;37.688;2023-09-07T05:02:36;22.91;52.32
79024;DHT22;70306;44.764;37.688;2023-09-07T05:03:42;22.92;54.16
79024;DHT22;70306;44.764;37.688;2023-09-07T05:04:44;22.96;53.33
79024;DHT22;70306;44.764;37.688;2023-09-07T05:05:52;23.03;52.59
79024;DHT22;70306;44.764;37.688;2023-09-07T05:06:55;23.09;52.32
79024;DHT22;70306;44.764;37.688;2023-09-07T05:07:57;23.13;52.83
79024;DHT22;70306;44.764;37.688;2023-09-07T05:08:59;23.14;52.18
79024;DHT22;70306;44.764;37.688;2023-09-07T05:10:00;23.16;52.13
79024;DHT22;70306;44.764;37.688;2023-09-07T05:11:03;23.20;52.08
79024;DHT22;70306;44.764;37.688;2023-09-07T05:12:05;23.20;51.95
79024;DHT22;70306;44.764;37.688;2023-09-07T05:13:07;23.24;52.05
79024;DHT22;70306;44.764;37.688;2023-09-07T05:14:08;23.28;52.16
79024;DHT22;70306;44.764;37.688;2023-09-07T05:15:10;23.31;52.43
79024;DHT22;70306;44.764;37.688;2023-09-07T05:16:12;23.33;52.06
79024;DHT22;70306;44.764;37.688;2023-09-07T05:17:14;23.40;52.20
79024;DHT22;70306;44.764;37.688;2023-09-07T05:18:17;23.44;51.89
79024;DHT22;70306;44.764;37.688;2023-09-07T05:19:21;23.51;52.48
79024;DHT22;70306;44.764;37.688;2023-09-07T05:20:23;23.57;51.39
79024;DHT22;70306;44.764;37.688;2023-09-07T05:21:25;23.61;51.77
79024;DHT22;70306;44.764;37.688;2023-09-07T05:22:27;23.61;50.45
79024;DHT22;70306;44.764;37.688;2023-09-07T05:23:30;23.57;50.71
79024;DHT22;70306;44.764;37.688;2023-09-07T05:24:32;23.59;50.57
79024;DHT22;70306;44.764;37.688;2023-09-07T05:25:42;23.65;51.24
79024;DHT22;70306;44.764;37.688;2023-09-07T05:26:44;23.75;51.22
79024;DHT22;70306;44.764;37.688;2023-09-07T05:27:48;23.79;50.68
79024;DHT22;70306;44.764;37.688;2023-09-07T05:28:50;23.82;50.70
79024;DHT22;70306;44.764;37.688;2023-09-07T05:29:52;23.86;50.05
79024;DHT22;70306;44.764;37.688;2023-09-07T05:30:54;23.88;50.17
79024;DHT22;70306;44.764;37.688;2023-09-07T05:31:58;23.93;49.96
79024;DHT22;70306;44.764;37.688;2023-09-07T05:33:00;23.97;50.52
79024;DHT22;70306;44.764;37.688;2023-09-07T05:34:02;24.06;49.44
79024;DHT22;70306;44.764;37.688;2023-09-07T05:35:05;24.05;49.12
79024;DHT22;70306;44.764;37.688;2023-09-07T05:36:07;24.12;49.14
79024;DHT22;70306;44.764;37.688;2023-09-07T05:37:10;24.14;49.19
79024;DHT22;70306;44.764;37.688;2023-09-07T05:38:14;24.18;48.84
79024;DHT22;70306;44.764;37.688;2023-09-07T05:39:17;24.24;48.91
79024;DHT22;70306;44.764;37.688;2023-09-07T05:40:19;24.31;49.95
79024;DHT22;70306;44.764;37.688;2023-09-07T05:41:21;24.35;48.45
79024;DHT22;70306;44.764;37.688;2023-09-07T05:42:23;24.37;48.42
79024;DHT22;70306;44.764;37.688;2023-09-07T05:43:27;24.31;47.82
79024;DHT22;70306;44.764;37.688;2023-09-07T05:44:29;24.27;47.91
79024;DHT22;70306;44.764;37.688;2023-09-07T05:45:36;24.31;49.03
79024;DHT22;70306;44.764;37.688;2023-09-07T05:46:38;24.37;48.31
79024;DHT22;70306;44.764;37.688;2023-09-07T05:47:40;24.38;48.02
79024;DHT22;70306;44.764;37.688;2023-09-07T05:48:42;24.41;48.13
79024;DHT22;70306;44.764;37.688;2023-09-07T05:49:44;24.38;47.43
79024;DHT22;70306;44.764;37.688;2023-09-07T05:50:46;24.35;47.42
79024;DHT22;70306;44.764;37.688;2023-09-07T05:51:48;24.35;47.72
79024;DHT22;70306;44.764;37.688;2023-09-07T05:52:50;24.41;47.78
79024;DHT22;70306;44.764;37.688;2023-09-07T05:53:54;24.47;47.85
79024;DHT22;70306;44.764;37.688;2023-09-07T05:54:57;24.49;47.26
79024;DHT22;70306;44.764;37.688;2023-09-07T05:55:59;24.52;47.09
79024;DHT22;70306;44.764;37.688;2023-09-07T05:57:01;24.61;47.15
79024;DHT22;70306;44.764;37.688;2023-09-07T05:58:06;24.66;46.92
79024;DHT22;70306;44.764;37.688;2023-09-07T05:59:11;24.71;46.80
79024;DHT22;70306;44.764;37.688;2023-09-07T06:00:13;24.76;46.41
79024;DHT22;70306;44.764;37.688;2023-09-07T06:01:17;24.75;46.35
79024;DHT22;70306;44.764;37.688;2023-09-07T06:02:19;24.76;46.18
79024;DHT22;70306;44.764;37.688;2023-09-07T06:03:20;24.77;46.37
79024;DHT22;70306;44.764;37.688;2023-09-07T06:04:23;24.80;46.49
79024;DHT22;70306;44.764;37.688;2023-09-07T06:05:25;24.87;44.99
79024;DHT22;70306;44.764;37.688;2023-09-07T06:06:27;24.93;44.87
79024;DHT22;70306;44.764;37.688;2023-09-07T06:07:29;25.00;44.57
79024;DHT22;70306;44.764;37.688;2023-09-07T06:08:31;24.99;44.75
79024;DHT22;70306;44.764;37.688;2023-09-07T06:09:33;25.03;45.09
79024;DHT22;70306;44.764;37.688;2023-09-07T06:10:35;25.03;44.24
79024;DHT22;70306;44.764;37.688;2023-09-07T06:11:38;25.03;44.99
79024;DHT22;70306;44.764;37.688;2023-09-07T06:12:41;25.10;44.55
79024;DHT22;70306;44.764;37.688;2023-09-07T06:13:44;25.16;45.59
79024;DHT22;70306;44.764;37.688;2023-09-07T06:14:47;25.19;44.62
79024;DHT22;70306;44.764;37.688;2023-09-07T06:15:49;25.23;44.68
79024;DHT22;70306;44.764;37.688;2023-09-07T06:16:51;25.27;43.98
79024;DHT22;70306;44.764;37.688;2023-09-07T06:17:53;25.27;44.09
79024;DHT22;70306;44.764;37.688;2023-09-07T06:18:56;25.28;43.89
79024;DHT22;70306;44.764;37.688;2023-09-07T06:19:58;25.30;43.98
79024;DHT22;70306;44.764;37.688;2023-09-07T06:21:01;25.33;44.16
79024;DHT22;70306;44.764;37.688;2023-09-07T06:22:03;25.38;44.30
79024;DHT22;70306;44.764;37.688;2023-09-07T06:23:05;25.46;44.29
79024;DHT22;70306;44.764;37.688;2023-09-07T06:24:07;25.51;44.27
79024;DHT22;70306;44.764;37.688;2023-09-07T06:25:09;25.61;44.61
79024;DHT22;70306;44.764;37.688;2023-09-07T06:26:11;25.66;43.52
79024;DHT22;70306;44.764;37.688;2023-09-07T06:27:13;25.71;43.40
79024;DHT22;70306;44.764;37.688;2023-09-07T06:28:15;25.71;43.35